sensor_id;sensor_type;location;lat;lon;timestamp;temperature;humidity
4578;DHT22;2301;47.354;8.528;2023-10-13T00:01:10;19.80;68.70
4578;DHT22;2301;47.354;8.528;2023-10-13T00:03:39;19.70;68.90
4578;DHT22;2301;47.354;8.528;2023-10-13T00:06:06;19.70;68.80
4578;DHT22;2301;47.354;8.528;2023-10-13T00:08:34;19.60;68.90
4578;DHT22;2301;47.354;8.528;2023-10-13T00:11:04;19.60;69.10
4578;DHT22;2301;47.354;8.528;2023-10-13T00:13:31;19.50;69.60
4578;DHT22;2301;47.354;8.528;2023-10-13T00:16:09;19.50;69.70
4578;DHT22;2301;47.354;8.528;2023-10-13T00:18:42;19.50;70.00
4578;DHT22;2301;47.354;8.528;2023-10-13T00:21:10;19.50;69.80
4578;DHT22;2301;47.354;8.528;2023-10-13T00:23:42;19.50;69.70
4578;DHT22;2301;47.354;8.528;2023-10-13T00:26:18;19.40;69.60
4578;DHT22;2301;47.354;8.528;2023-10-13T00:28:49;19.40;70.00
4578;DHT22;2301;47.354;8.528;2023-10-13T00:31:26;19.40;70.60
4578;DHT22;2301;47.354;8.528;2023-10-13T00:33:59;19.40;69.70
4578;DHT22;2301;47.354;8.528;2023-10-13T00:36:35;19.30;69.40
4578;DHT22;2301;47.354;8.528;2023-10-13T00:39:02;19.30;69.60
4578;DHT22;2301;47.354;8.528;2023-10-13T00:41:31;19.20;69.30
4578;DHT22;2301;47.354;8.528;2023-10-13T00:44:17;19.20;70.00
4578;DHT22;2301;47.354;8.528;2023-10-13T00:46:44;19.20;69.80
4578;DHT22;2301;47.354;8.528;2023-10-13T00:49:12;19.20;69.70
4578;DHT22;2301;47.354;8.528;2023-10-13T00:51:41;19.20;70.10
4578;DHT22;2301;47.354;8.528;2023-10-13T00:54:13;19.20;70.00
4578;DHT22;2301;47.354;8.528;2023-10-13T00:56:42;19.20;70.20
4578;DHT22;2301;47.354;8.528;2023-10-13T00:59:14;19.10;70.20
4578;DHT22;2301;47.354;8.528;2023-10-13T01:01:40;19.10;70.10
4578;DHT22;2301;47.354;8.528;2023-10-13T01:04:11;19.10;70.20
4578;DHT22;2301;47.354;8.528;2023-10-13T01:06:38;19.00;70.30
4578;DHT22;2301;47.354;8.528;2023-10-13T01:09:07;19.00;70.40
4578;DHT22;2301;47.354;8.528;2023-10-13T01:11:43;19.00;70.40
4578;DHT22;2301;47.354;8.528;2023-10-13T01:14:09;18.90;70.40
4578;DHT22;2301;47.354;8.528;2023-10-13T01:16:38;19.00;70.80
4578;DHT22;2301;47.354;8.528;2023-10-13T01:19:07;18.90;70.90
4578;DHT22;2301;47.354;8.528;2023-10-13T01:21:41;18.90;71.20
4578;DHT22;2301;47.354;8.528;2023-10-13T01:24:14;18.90;71.00
4578;DHT22;2301;47.354;8.528;2023-10-13T01:26:41;18.90;71.10
4578;DHT22;2301;47.354;8.528;2023-10-13T01:29:08;18.90;71.30
4578;DHT22;2301;47.354;8.528;2023-10-13T01:31:37;18.90;70.70
4578;DHT22;2301;47.354;8.528;2023-10-13T01:34:11;18.80;70.50
4578;DHT22;2301;47.354;8.528;2023-10-13T01:36:38;18.80;70.80
4578;DHT22;2301;47.354;8.528;2023-10-13T01:39:07;18.80;70.70
4578;DHT22;2301;47.354;8.528;2023-10-13T01:41:37;18.80;71.00
4578;DHT22;2301;47.354;8.528;2023-10-13T01:44:05;18.80;70.90
4578;DHT22;2301;47.354;8.528;2023-10-13T01:46:33;18.90;71.10
4578;DHT22;2301;47.354;8.528;2023-10-13T01:49:02;18.80;71.30
4578;DHT22;2301;47.354;8.528;2023-10-13T01:51:29;18.80;71.10
4578;DHT22;2301;47.354;8.528;2023-10-13T01:53:56;18.80;71.00
4578;DHT22;2301;47.354;8.528;2023-10-13T01:56:22;18.80;70.80
4578;DHT22;2301;47.354;8.528;2023-10-13T01:58:50;18.80;71.10
4578;DHT22;2301;47.354;8.528;2023-10-13T02:01:17;18.80;71.00
4578;DHT22;2301;47.354;8.528;2023-10-13T02:03:52;18.70;71.10
4578;DHT22;2301;47.354;8.528;2023-10-13T02:06:27;18.70;71.20
4578;DHT22;2301;47.354;8.528;2023-10-13T02:08:58;18.70;71.10
4578;DHT22;2301;47.354;8.528;2023-10-13T02:11:31;18.60;71.30
4578;DHT22;2301;47.354;8.528;2023-10-13T02:13:59;18.70;71.70
4578;DHT22;2301;47.354;8.528;2023-10-13T02:16:25;18.70;71.50
4578;DHT22;2301;47.354;8.528;2023-10-13T02:18:53;18.70;71.50
4578;DHT22;2301;47.354;8.528;2023-10-13T02:21:19;18.70;71.40
4578;DHT22;2301;47.354;8.528;2023-10-13T02:23:46;18.70;71.40
4578;DHT22;2301;47.354;8.528;2023-10-13T02:26:25;18.70;71.30
4578;DHT22;2301;47.354;8.528;2023-10-13T02:28:56;18.70;71.20
4578;DHT22;2301;47.354;8.528;2023-10-13T02:31:26;18.60;71.20
4578;DHT22;2301;47.354;8.528;2023-10-13T02:33:53;18.60;71.50
4578;DHT22;2301;47.354;8.528;2023-10-13T02:36:20;18.60;71.90
4578;DHT22;2301;47.354;8.528;2023-10-13T02:39:02;18.60;71.60
4578;DHT22;2301;47.354;8.528;2023-10-13T02:41:33;18.60;71.50
4578;DHT22;2301;47.354;8.528;2023-10-13T02:44:03;18.50;71.40
4578;DHT22;2301;47.354;8.528;2023-10-13T02:46:33;18.50;71.40
4578;DHT22;2301;47.354;8.528;2023-10-13T02:49:02;18.50;71.80
4578;DHT22;2301;47.354;8.528;2023-10-13T02:51:35;18.40;71.60
4578;DHT22;2301;47.354;8.528;2023-10-13T02:54:03;18.40;71.70
4578;DHT22;2301;47.354;8.528;2023-10-13T02:56:34;18.30;72.00
4578;DHT22;2301;47.354;8.528;2023-10-13T02:59:02;18.30;72.00
4578;DHT22;2301;47.354;8.528;2023-10-13T03:01:32;18.30;71.90
4578;DHT22;2301;47.354;8.528;2023-10-13T03:04:00;18.30;72.10
4578;DHT22;2301;47.354;8.528;2023-10-13T03:06:26;18.20;72.10
4578;DHT22;2301;47.354;8.528;2023-10-13T03:08:58;18.20;72.00
4578;DHT22;2301;47.354;8.528;2023-10-13T03:11:39;18.20;72.10
4578;DHT22;2301;47.354;8.528;2023-10-13T03:14:08;18.20;72.20
4578;DHT22;2301;47.354;8.528;2023-10-13T03:16:35;18.30;72.50
4578;DHT22;2301;47.354;8.528;2023-10-13T03:19:02;18.20;72.20
4578;DHT22;2301;47.354;8.528;2023-10-13T03:21:33;18.20;72.30
4578;DHT22;2301;47.354;8.528;2023-10-13T03:24:02;18.20;72.20
4578;DHT22;2301;47.354;8.528;2023-10-13T03:26:33;18.20;72.30
4578;DHT22;2301;47.354;8.528;2023-10-13T03:29:04;18.20;72.30
4578;DHT22;2301;47.354;8.528;2023-10-13T03:31:35;18.10;72.30
4578;DHT22;2301;47.354;8.528;2023-10-13T03:34:05;18.10;72.60
4578;DHT22;2301;47.354;8.528;2023-10-13T03:36:35;18.10;72.80
4578;DHT22;2301;47.354;8.528;2023-10-13T03:39:16;18.10;72.90
4578;DHT22;2301;47.354;8.528;2023-10-13T03:41:43;18.00;73.00
4578;DHT22;2301;47.354;8.528;2023-10-13T03:44:11;18.00;72.80
4578;DHT22;2301;47.354;8.528;2023-10-13T03:46:45;18.00;73.00
4578;DHT22;2301;47.354;8.528;2023-10-13T03:49:14;18.00;72.80
4578;DHT22;2301;47.354;8.528;2023-10-13T03:51:46;18.00;73.00
4578;DHT22;2301;47.354;8.528;2023-10-13T03:54:13;18.00;73.30
4578;DHT22;2301;47.354;8.528;2023-10-13T03:56:43;17.90;73.20
4578;DHT22;2301;47.354;8.528;2023-10-13T03:59:11;17.90;73.30
4578;DHT22;2301;47.354;8.528;2023-10-13T04:01:48;17.90;73.20
4578;DHT22;2301;47.354;8.528;2023-10-13T04:04:26;17.90;73.50
4578;DHT22;2301;47.354;8.528;2023-10-13T04:07:14;17.90;73.60
4578;DHT22;2301;47.354;8.528;2023-10-13T04:10:05;17.80;73.80
4578;DHT22;2301;47.354;8.528;2023-10-13T04:12:50;17.80;73.70
4578;DHT22;2301;47.354;8.528;2023-10-13T04:15:34;17.80;73.80
4578;DHT22;2301;47.354;8.528;2023-10-13T04:18:26;17.80;73.40
4578;DHT22;2301;47.354;8.528;2023-10-13T04:21:00;17.80;73.60
4578;DHT22;2301;47.354;8.528;2023-10-13T04:23:51;17.80;73.90
4578;DHT22;2301;47.354;8.528;2023-10-13T04:26:50;17.80;73.80
4578;DHT22;2301;47.354;8.528;2023-10-13T04:29:31;17.80;73.90
4578;DHT22;2301;47.354;8.528;2023-10-13T04:32:16;17.80;73.60
4578;DHT22;2301;47.354;8.528;2023-10-13T04:34:55;17.80;74.00
4578;DHT22;2301;47.354;8.528;2023-10-13T04:37:25;17.70;73.70
4578;DHT22;2301;47.354;8.528;2023-10-13T04:39:55;17.70;73.40
4578;DHT22;2301;47.354;8.528;2023-10-13T04:42:25;17.70;73.60
4578;DHT22;2301;47.354;8.528;2023-10-13T04:45:10;17.70;73.70
4578;DHT22;2301;47.354;8.528;2023-10-13T04:48:03;17.70;73.90
4578;DHT22;2301;47.354;8.528;2023-10-13T04:50:41;17.60;70.70
4578;DHT22;2301;47.354;8.528;2023-10-13T04:53:11;17.40;68.70
4578;DHT22;2301;47.354;8.528;2023-10-13T04:55:54;17.30;68.20
4578;DHT22;2301;47.354;8.528;2023-10-13T04:58:33;17.10;68.20
4578;DHT22;2301;47.354;8.528;2023-10-13T05:01:33;17.00;68.40
4578;DHT22;2301;47.354;8.528;2023-10-13T05:04:36;16.80;68.80
4578;DHT22;2301;47.354;8.528;2023-10-13T05:07:26;16.70;69.30
4578;DHT22;2301;47.354;8.528;2023-10-13T05:10:10;16.60;70.00
4578;DHT22;2301;47.354;8.528;2023-10-13T05:12:54;16.50;70.10
4578;DHT22;2301;47.354;8.528;2023-10-13T05:15:47;16.40;70.20
4578;DHT22;2301;47.354;8.528;2023-10-13T05:18:31;16.40;71.10
4578;DHT22;2301;47.354;8.528;2023-10-13T05:21:16;16.30;70.40
4578;DHT22;2301;47.354;8.528;2023-10-13T05:24:02;16.30;70.50
4578;DHT22;2301;47.354;8.528;2023-10-13T05:26:46;16.20;70.50
4578;DHT22;2301;47.354;8.528;2023-10-13T05:29:30;16.10;70.40
4578;DHT22;2301;47.354;8.528;2023-10-13T05:32:15;16.10;70.70
4578;DHT22;2301;47.354;8.528;2023-10-13T05:34:59;16.10;70.70
4578;DHT22;2301;47.354;8.528;2023-10-13T05:37:43;16.00;70.90
4578;DHT22;2301;47.354;8.528;2023-10-13T05:40:30;15.90;71.00
4578;DHT22;2301;47.354;8.528;2023-10-13T05:43:14;15.90;71.00
4578;DHT22;2301;47.354;8.528;2023-10-13T05:46:02;15.80;71.20
4578;DHT22;2301;47.354;8.528;2023-10-13T05:48:43;15.80;71.50
4578;DHT22;2301;47.354;8.528;2023-10-13T05:51:35;16.20;84.80
4578;DHT22;2301;47.354;8.528;2023-10-13T05:54:13;16.20;76.50
4578;DHT22;2301;47.354;8.528;2023-10-13T05:57:13;16.20;73.80
4578;DHT22;2301;47.354;8.528;2023-10-13T05:59:57;16.10;73.10
4578;DHT22;2301;47.354;8.528;2023-10-13T06:02:41;16.00;73.10
4578;DHT22;2301;47.354;8.528;2023-10-13T06:05:40;16.00;73.40
4578;DHT22;2301;47.354;8.528;2023-10-13T06:08:24;15.90;73.40
4578;DHT22;2301;47.354;8.528;2023-10-13T06:11:09;15.90;73.50
4578;DHT22;2301;47.354;8.528;2023-10-13T06:13:55;15.90;73.80
4578;DHT22;2301;47.354;8.528;2023-10-13T06:16:40;15.80;74.00
4578;DHT22;2301;47.354;8.528;2023-10-13T06:19:25;15.80;74.20
4578;DHT22;2301;47.354;8.528;2023-10-13T06:22:09;15.80;74.30
4578;DHT22;2301;47.354;8.528;2023-10-13T06:24:53;15.70;73.70
4578;DHT22;2301;47.354;8.528;2023-10-13T06:27:34;15.70;73.70
4578;DHT22;2301;47.354;8.528;2023-10-13T06:30:20;15.60;73.60
4578;DHT22;2301;47.354;8.528;2023-10-13T06:32:47;15.60;73.60
4578;DHT22;2301;47.354;8.528;2023-10-13T06:35:16;15.60;73.70
4578;DHT22;2301;47.354;8.528;2023-10-13T06:37:48;15.60;73.60
4578;DHT22;2301;47.354;8.528;2023-10-13T06:40:15;15.50;73.60
4578;DHT22;2301;47.354;8.528;2023-10-13T06:42:58;15.50;73.60
4578;DHT22;2301;47.354;8.528;2023-10-13T06:45:40;15.60;73.90
4578;DHT22;2301;47.354;8.528;2023-10-13T06:48:07;15.60;74.10
4578;DHT22;2301;47.354;8.528;2023-10-13T06:50:37;15.60;74.40
4578;DHT22;2301;47.354;8.528;2023-10-13T06:53:07;15.60;74.50
4578;DHT22;2301;47.354;8.528;2023-10-13T06:55:37;15.70;74.60
4578;DHT22;2301;47.354;8.528;2023-10-13T06:58:05;15.70;74.80
4578;DHT22;2301;47.354;8.528;2023-10-13T07:00:33;15.70;75.20
4578;DHT22;2301;47.354;8.528;2023-10-13T07:03:01;15.70;75.50
4578;DHT22;2301;47.354;8.528;2023-10-13T07:05:35;15.80;75.60
4578;DHT22;2301;47.354;8.528;2023-10-13T07:08:04;15.80;75.70
4578;DHT22;2301;47.354;8.528;2023-10-13T07:10:32;15.90;75.80
4578;DHT22;2301;47.354;8.528;2023-10-13T07:13:10;15.90;75.80
4578;DHT22;2301;47.354;8.528;2023-10-13T07:15:39;15.90;75.80
4578;DHT22;2301;47.354;8.528;2023-10-13T07:18:12;16.00;75.70
4578;DHT22;2301;47.354;8.528;2023-10-13T07:20:41;16.00;75.80
4578;DHT22;2301;47.354;8.528;2023-10-13T07:23:11;16.10;76.30
4578;DHT22;2301;47.354;8.528;2023-10-13T07:25:51;16.20;76.70
4578;DHT22;2301;47.354;8.528;2023-10-13T07:28:19;16.30;77.00
4578;DHT22;2301;47.354;8.528;2023-10-13T07:30:46;16.50;77.00
4578;DHT22;2301;47.354;8.528;2023-10-13T07:33:37;16.60;76.40
4578;DHT22;2301;47.354;8.528;2023-10-13T07:36:07;16.70;76.00
4578;DHT22;2301;47.354;8.528;2023-10-13T07:38:42;16.80;75.90
4578;DHT22;2301;47.354;8.528;2023-10-13T07:41:09;16.80;75.90
4578;DHT22;2301;47.354;8.528;2023-10-13T07:43:41;16.90;76.70
4578;DHT22;2301;47.354;8.528;2023-10-13T07:46:10;17.10;77.50
4578;DHT22;2301;47.354;8.528;2023-10-13T07:48:39;17.40;77.30
4578;DHT22;2301;47.354;8.528;2023-10-13T07:51:11;17.70;77.80
4578;DHT22;2301;47.354;8.528;2023-10-13T07:53:41;18.00;77.50
4578;DHT22;2301;47.354;8.528;2023-10-13T07:56:09;18.30;76.80
4578;DHT22;2301;47.354;8.528;2023-10-13T07:58:38;18.60;75.90
4578;DHT22;2301;47.354;8.528;2023-10-13T08:01:13;18.90;74.90
4578;DHT22;2301;47.354;8.528;2023-10-13T08:03:46;19.30;74.30
4578;DHT22;2301;47.354;8.528;2023-10-13T08:06:16;19.60;73.30
4578;DHT22;2301;47.354;8.528;2023-10-13T08:08:46;19.90;72.20
4578;DHT22;2301;47.354;8.528;2023-10-13T08:11:17;20.10;71.00
4578;DHT22;2301;47.354;8.528;2023-10-13T08:13:54;20.40;70.50
4578;DHT22;2301;47.354;8.528;2023-10-13T08:16:21;20.60;69.70
4578;DHT22;2301;47.354;8.528;2023-10-13T08:18:55;20.80;69.20
4578;DHT22;2301;47.354;8.528;2023-10-13T08:21:22;21.00;67.80
4578;DHT22;2301;47.354;8.528;2023-10-13T08:23:49;21.20;66.90
4578;DHT22;2301;47.354;8.528;2023-10-13T08:26:31;21.40;67.10
4578;DHT22;2301;47.354;8.528;2023-10-13T08:29:30;21.60;65.80
4578;DHT22;2301;47.354;8.528;2023-10-13T08:32:14;21.80;65.50
4578;DHT22;2301;47.354;8.528;2023-10-13T08:34:50;22.00;65.50
4578;DHT22;2301;47.354;8.528;2023-10-13T08:37:35;22.20;64.40
4578;DHT22;2301;47.354;8.528;2023-10-13T08:40:13;22.40;63.30
4578;DHT22;2301;47.354;8.528;2023-10-13T08:43:13;22.60;61.90
4578;DHT22;2301;47.354;8.528;2023-10-13T08:45:42;22.80;61.80
4578;DHT22;2301;47.354;8.528;2023-10-13T08:48:24;23.00;61.00
4578;DHT22;2301;47.354;8.528;2023-10-13T08:50:59;23.20;59.30
4578;DHT22;2301;47.354;8.528;2023-10-13T08:53:37;23.40;59.10
4578;DHT22;2301;47.354;8.528;2023-10-13T08:56:17;23.50;58.40
4578;DHT22;2301;47.354;8.528;2023-10-13T08:58:46;23.70;58.70
4578;DHT22;2301;47.354;8.528;2023-10-13T09:01:34;23.90;58.20
4578;DHT22;2301;47.354;8.528;2023-10-13T09:04:06;24.10;57.80
4578;DHT22;2301;47.354;8.528;2023-10-13T09:06:52;24.20;56.00
4578;DHT22;2301;47.354;8.528;2023-10-13T09:09:45;24.30;55.80
4578;DHT22;2301;47.354;8.528;2023-10-13T09:12:37;24.50;55.10
4578;DHT22;2301;47.354;8.528;2023-10-13T09:15:29;24.70;54.90
4578;DHT22;2301;47.354;8.528;2023-10-13T09:18:25;24.80;54.50
4578;DHT22;2301;47.354;8.528;2023-10-13T09:21:12;25.00;54.20
4578;DHT22;2301;47.354;8.528;2023-10-13T09:23:57;25.20;53.40
4578;DHT22;2301;47.354;8.528;2023-10-13T09:26:41;25.30;52.80
4578;DHT22;2301;47.354;8.528;2023-10-13T09:29:17;25.50;52.30
4578;DHT22;2301;47.354;8.528;2023-10-13T09:31:46;25.50;50.90
4578;DHT22;2301;47.354;8.528;2023-10-13T09:34:19;25.70;51.60
4578;DHT22;2301;47.354;8.528;2023-10-13T09:36:46;25.90;50.70
4578;DHT22;2301;47.354;8.528;2023-10-13T09:39:24;26.10;50.80
4578;DHT22;2301;47.354;8.528;2023-10-13T09:41:55;26.30;49.20
4578;DHT22;2301;47.354;8.528;2023-10-13T09:44:25;26.40;49.40
4578;DHT22;2301;47.354;8.528;2023-10-13T09:47:00;26.50;49.60
4578;DHT22;2301;47.354;8.528;2023-10-13T09:49:39;26.50;49.00
4578;DHT22;2301;47.354;8.528;2023-10-13T09:52:14;26.60;48.00
4578;DHT22;2301;47.354;8.528;2023-10-13T09:54:52;26.70;47.90
4578;DHT22;2301;47.354;8.528;2023-10-13T09:57:28;26.90;46.90
4578;DHT22;2301;47.354;8.528;2023-10-13T10:00:06;27.00;46.90
4578;DHT22;2301;47.354;8.528;2023-10-13T10:02:53;27.20;47.20
4578;DHT22;2301;47.354;8.528;2023-10-13T10:05:24;27.40;47.00
4578;DHT22;2301;47.354;8.528;2023-10-13T10:07:55;27.50;44.40
4578;DHT22;2301;47.354;8.528;2023-10-13T10:10:42;27.60;43.60
4578;DHT22;2301;47.354;8.528;2023-10-13T10:13:15;27.60;43.50
4578;DHT22;2301;47.354;8.528;2023-10-13T10:15:47;27.70;44.20
4578;DHT22;2301;47.354;8.528;2023-10-13T10:18:19;27.70;44.60
4578;DHT22;2301;47.354;8.528;2023-10-13T10:20:48;27.80;45.10
4578;DHT22;2301;47.354;8.528;2023-10-13T10:23:25;27.90;45.30
4578;DHT22;2301;47.354;8.528;2023-10-13T10:25:57;28.00;45.10
4578;DHT22;2301;47.354;8.528;2023-10-13T10:28:39;28.10;44.40
4578;DHT22;2301;47.354;8.528;2023-10-13T10:31:09;28.30;45.40
4578;DHT22;2301;47.354;8.528;2023-10-13T10:33:41;28.30;45.40
4578;DHT22;2301;47.354;8.528;2023-10-13T10:36:12;28.40;44.10
4578;DHT22;2301;47.354;8.528;2023-10-13T10:38:53;28.50;43.80
4578;DHT22;2301;47.354;8.528;2023-10-13T10:41:29;28.60;43.50
4578;DHT22;2301;47.354;8.528;2023-10-13T10:44:10;28.70;42.50
4578;DHT22;2301;47.354;8.528;2023-10-13T10:46:42;28.70;42.20
4578;DHT22;2301;47.354;8.528;2023-10-13T10:49:18;28.80;41.50
4578;DHT22;2301;47.354;8.528;2023-10-13T10:51:58;28.90;40.70
4578;DHT22;2301;47.354;8.528;2023-10-13T10:54:30;28.90;41.80
4578;DHT22;2301;47.354;8.528;2023-10-13T10:57:00;28.90;42.10
4578;DHT22;2301;47.354;8.528;2023-10-13T10:59:38;29.00;42.00
4578;DHT22;2301;47.354;8.528;2023-10-13T11:02:05;29.00;41.80
4578;DHT22;2301;47.354;8.528;2023-10-13T11:04:34;29.00;42.30
4578;DHT22;2301;47.354;8.528;2023-10-13T11:07:06;29.00;42.70
4578;DHT22;2301;47.354;8.528;2023-10-13T11:09:35;29.00;42.20
4578;DHT22;2301;47.354;8.528;2023-10-13T11:12:13;29.00;42.30
4578;DHT22;2301;47.354;8.528;2023-10-13T11:14:42;29.00;42.70
4578;DHT22;2301;47.354;8.528;2023-10-13T11:17:19;29.00;42.30
4578;DHT22;2301;47.354;8.528;2023-10-13T11:19:50;29.00;41.90
4578;DHT22;2301;47.354;8.528;2023-10-13T11:22:19;28.90;42.90
4578;DHT22;2301;47.354;8.528;2023-10-13T11:25:07;28.90;42.80
4578;DHT22;2301;47.354;8.528;2023-10-13T11:27:38;28.80;42.30
4578;DHT22;2301;47.354;8.528;2023-10-13T11:30:22;28.80;42.30
4578;DHT22;2301;47.354;8.528;2023-10-13T11:32:59;28.90;42.10
4578;DHT22;2301;47.354;8.528;2023-10-13T11:35:26;28.80;41.50
4578;DHT22;2301;47.354;8.528;2023-10-13T11:38:14;28.70;41.60
4578;DHT22;2301;47.354;8.528;2023-10-13T11:40:51;28.80;41.60
4578;DHT22;2301;47.354;8.528;2023-10-13T11:43:35;28.90;41.50
4578;DHT22;2301;47.354;8.528;2023-10-13T11:46:19;28.90;41.80
4578;DHT22;2301;47.354;8.528;2023-10-13T11:49:00;28.90;42.30
4578;DHT22;2301;47.354;8.528;2023-10-13T11:51:31;29.00;42.70
4578;DHT22;2301;47.354;8.528;2023-10-13T11:54:04;29.00;42.50
4578;DHT22;2301;47.354;8.528;2023-10-13T11:56:30;28.80;41.10
4578;DHT22;2301;47.354;8.528;2023-10-13T11:58:58;28.70;41.20
4578;DHT22;2301;47.354;8.528;2023-10-13T12:01:27;28.70;41.60
4578;DHT22;2301;47.354;8.528;2023-10-13T12:04:08;28.60;42.60
4578;DHT22;2301;47.354;8.528;2023-10-13T12:06:52;28.50;42.80
4578;DHT22;2301;47.354;8.528;2023-10-13T12:09:39;28.30;42.90
4578;DHT22;2301;47.354;8.528;2023-10-13T12:12:17;28.10;43.30
4578;DHT22;2301;47.354;8.528;2023-10-13T12:14:46;28.10;43.70
4578;DHT22;2301;47.354;8.528;2023-10-13T12:17:20;28.10;43.50
4578;DHT22;2301;47.354;8.528;2023-10-13T12:19:51;28.10;44.00
4578;DHT22;2301;47.354;8.528;2023-10-13T12:22:18;28.20;44.50
4578;DHT22;2301;47.354;8.528;2023-10-13T12:24:52;28.20;44.60
4578;DHT22;2301;47.354;8.528;2023-10-13T12:27:19;28.20;45.10
4578;DHT22;2301;47.354;8.528;2023-10-13T12:29:51;28.10;44.90
4578;DHT22;2301;47.354;8.528;2023-10-13T12:32:18;28.00;44.60
4578;DHT22;2301;47.354;8.528;2023-10-13T12:34:48;28.00;44.60
4578;DHT22;2301;47.354;8.528;2023-10-13T12:37:26;27.80;44.20
4578;DHT22;2301;47.354;8.528;2023-10-13T12:40:16;27.80;44.50
4578;DHT22;2301;47.354;8.528;2023-10-13T12:43:01;27.80;44.40
4578;DHT22;2301;47.354;8.528;2023-10-13T12:45:48;27.80;44.80
4578;DHT22;2301;47.354;8.528;2023-10-13T12:48:34;27.90;45.30
4578;DHT22;2301;47.354;8.528;2023-10-13T12:51:19;27.90;44.30
4578;DHT22;2301;47.354;8.528;2023-10-13T12:54:06;27.80;43.90
4578;DHT22;2301;47.354;8.528;2023-10-13T12:56:40;27.70;43.30
4578;DHT22;2301;47.354;8.528;2023-10-13T12:59:08;27.80;42.10
4578;DHT22;2301;47.354;8.528;2023-10-13T13:01:40;27.70;42.70
4578;DHT22;2301;47.354;8.528;2023-10-13T13:04:09;27.60;42.60
4578;DHT22;2301;47.354;8.528;2023-10-13T13:06:44;27.50;43.50
4578;DHT22;2301;47.354;8.528;2023-10-13T13:09:14;27.50;43.50
4578;DHT22;2301;47.354;8.528;2023-10-13T13:11:51;27.40;43.30
4578;DHT22;2301;47.354;8.528;2023-10-13T13:14:22;27.40;42.40
4578;DHT22;2301;47.354;8.528;2023-10-13T13:16:55;27.40;41.00
4578;DHT22;2301;47.354;8.528;2023-10-13T13:19:30;27.40;39.70
4578;DHT22;2301;47.354;8.528;2023-10-13T13:21:59;27.40;40.50
4578;DHT22;2301;47.354;8.528;2023-10-13T13:24:26;27.40;41.30
4578;DHT22;2301;47.354;8.528;2023-10-13T13:26:55;27.40;40.90
4578;DHT22;2301;47.354;8.528;2023-10-13T13:29:22;27.50;41.10
4578;DHT22;2301;47.354;8.528;2023-10-13T13:31:51;27.60;41.40
4578;DHT22;2301;47.354;8.528;2023-10-13T13:34:19;27.70;41.10
4578;DHT22;2301;47.354;8.528;2023-10-13T13:36:47;27.70;42.10
4578;DHT22;2301;47.354;8.528;2023-10-13T13:39:18;27.70;43.50
4578;DHT22;2301;47.354;8.528;2023-10-13T13:41:54;27.70;44.10
4578;DHT22;2301;47.354;8.528;2023-10-13T13:44:23;27.60;43.40
4578;DHT22;2301;47.354;8.528;2023-10-13T13:46:55;27.60;42.50
4578;DHT22;2301;47.354;8.528;2023-10-13T13:49:24;27.70;41.90
4578;DHT22;2301;47.354;8.528;2023-10-13T13:52:06;27.60;39.20
4578;DHT22;2301;47.354;8.528;2023-10-13T13:54:33;27.50;36.70
4578;DHT22;2301;47.354;8.528;2023-10-13T13:57:00;27.50;38.90
4578;DHT22;2301;47.354;8.528;2023-10-13T13:59:27;27.50;38.20
4578;DHT22;2301;47.354;8.528;2023-10-13T14:02:00;27.50;37.40
4578;DHT22;2301;47.354;8.528;2023-10-13T14:04:33;27.50;37.50
4578;DHT22;2301;47.354;8.528;2023-10-13T14:07:00;27.50;37.30
4578;DHT22;2301;47.354;8.528;2023-10-13T14:09:32;27.50;37.50
4578;DHT22;2301;47.354;8.528;2023-10-13T14:12:06;27.50;37.00
4578;DHT22;2301;47.354;8.528;2023-10-13T14:14:50;27.50;37.00
4578;DHT22;2301;47.354;8.528;2023-10-13T14:17:21;27.40;37.30
4578;DHT22;2301;47.354;8.528;2023-10-13T14:19:56;27.40;37.30
4578;DHT22;2301;47.354;8.528;2023-10-13T14:22:23;27.50;38.40
4578;DHT22;2301;47.354;8.528;2023-10-13T14:24:52;27.50;38.30
4578;DHT22;2301;47.354;8.528;2023-10-13T14:27:21;27.50;38.70
4578;DHT22;2301;47.354;8.528;2023-10-13T14:29:51;27.50;38.20
4578;DHT22;2301;47.354;8.528;2023-10-13T14:32:20;27.50;38.00
4578;DHT22;2301;47.354;8.528;2023-10-13T14:34:50;27.50;37.90
4578;DHT22;2301;47.354;8.528;2023-10-13T14:37:23;27.50;37.80
4578;DHT22;2301;47.354;8.528;2023-10-13T14:39:54;27.50;37.60
4578;DHT22;2301;47.354;8.528;2023-10-13T14:42:23;27.50;37.40
4578;DHT22;2301;47.354;8.528;2023-10-13T14:44:50;27.40;37.70
4578;DHT22;2301;47.354;8.528;2023-10-13T14:47:21;27.40;38.10
4578;DHT22;2301;47.354;8.528;2023-10-13T14:49:51;27.40;37.10
4578;DHT22;2301;47.354;8.528;2023-10-13T14:52:20;27.40;37.50
4578;DHT22;2301;47.354;8.528;2023-10-13T14:54:51;27.40;38.50
4578;DHT22;2301;47.354;8.528;2023-10-13T14:57:23;27.40;38.90
4578;DHT22;2301;47.354;8.528;2023-10-13T14:59:55;27.30;37.60
4578;DHT22;2301;47.354;8.528;2023-10-13T15:02:24;27.30;37.70
4578;DHT22;2301;47.354;8.528;2023-10-13T15:04:54;27.30;38.10
4578;DHT22;2301;47.354;8.528;2023-10-13T15:07:21;27.20;38.20
4578;DHT22;2301;47.354;8.528;2023-10-13T15:09:54;27.20;37.70
4578;DHT22;2301;47.354;8.528;2023-10-13T15:12:22;27.20;37.10
4578;DHT22;2301;47.354;8.528;2023-10-13T15:14:51;27.20;39.30
4578;DHT22;2301;47.354;8.528;2023-10-13T15:17:18;27.20;40.20
4578;DHT22;2301;47.354;8.528;2023-10-13T15:19:49;27.10;40.90
4578;DHT22;2301;47.354;8.528;2023-10-13T15:22:16;27.10;41.20
4578;DHT22;2301;47.354;8.528;2023-10-13T15:24:51;27.00;42.00
4578;DHT22;2301;47.354;8.528;2023-10-13T15:27:35;27.00;41.20
4578;DHT22;2301;47.354;8.528;2023-10-13T15:30:07;27.00;38.80
4578;DHT22;2301;47.354;8.528;2023-10-13T15:32:45;26.90;39.50
4578;DHT22;2301;47.354;8.528;2023-10-13T15:35:14;26.80;39.30
4578;DHT22;2301;47.354;8.528;2023-10-13T15:37:41;26.80;40.00
4578;DHT22;2301;47.354;8.528;2023-10-13T15:40:13;26.70;39.60
4578;DHT22;2301;47.354;8.528;2023-10-13T15:42:42;26.70;39.00
4578;DHT22;2301;47.354;8.528;2023-10-13T15:45:11;26.70;40.60
4578;DHT22;2301;47.354;8.528;2023-10-13T15:47:47;26.60;40.90
4578;DHT22;2301;47.354;8.528;2023-10-13T15:50:15;26.50;40.80
4578;DHT22;2301;47.354;8.528;2023-10-13T15:52:45;26.40;41.60
4578;DHT22;2301;47.354;8.528;2023-10-13T15:55:13;26.30;42.30
4578;DHT22;2301;47.354;8.528;2023-10-13T15:57:42;26.10;41.40
4578;DHT22;2301;47.354;8.528;2023-10-13T16:00:10;26.00;42.10
4578;DHT22;2301;47.354;8.528;2023-10-13T16:02:51;25.80;41.70
4578;DHT22;2301;47.354;8.528;2023-10-13T16:05:20;25.80;41.10
4578;DHT22;2301;47.354;8.528;2023-10-13T16:07:50;25.70;40.80
4578;DHT22;2301;47.354;8.528;2023-10-13T16:10:20;25.60;42.50
4578;DHT22;2301;47.354;8.528;2023-10-13T16:12:49;25.50;42.20
4578;DHT22;2301;47.354;8.528;2023-10-13T16:15:16;25.40;44.00
4578;DHT22;2301;47.354;8.528;2023-10-13T16:17:44;25.30;43.10
4578;DHT22;2301;47.354;8.528;2023-10-13T16:20:11;25.30;42.70
4578;DHT22;2301;47.354;8.528;2023-10-13T16:22:44;25.20;43.80
4578;DHT22;2301;47.354;8.528;2023-10-13T16:25:11;25.10;43.90
4578;DHT22;2301;47.354;8.528;2023-10-13T16:27:39;25.10;45.10
4578;DHT22;2301;47.354;8.528;2023-10-13T16:30:21;25.10;44.70
4578;DHT22;2301;47.354;8.528;2023-10-13T16:32:48;25.10;43.50
4578;DHT22;2301;47.354;8.528;2023-10-13T16:35:17;25.00;45.10
4578;DHT22;2301;47.354;8.528;2023-10-13T16:37:44;25.00;44.90
4578;DHT22;2301;47.354;8.528;2023-10-13T16:40:15;24.90;45.20
4578;DHT22;2301;47.354;8.528;2023-10-13T16:42:44;24.90;42.70
4578;DHT22;2301;47.354;8.528;2023-10-13T16:45:13;24.90;41.60
4578;DHT22;2301;47.354;8.528;2023-10-13T16:47:46;24.80;40.50